sensor_id;sensor_type;location;lat;lon;timestamp;pressure;altitude;pressure_sealevel;temperature;humidity
69796;BME280;57073;45.650;9.612;2022-08-19T00:00:37;98593.13;;;20.28;68.72
69796;BME280;57073;45.650;9.612;2022-08-19T00:02:38;98581.50;;;20.22;67.98
69796;BME280;57073;45.650;9.612;2022-08-19T00:04:38;98589.09;;;20.25;69.03
69796;BME280;57073;45.650;9.612;2022-08-19T00:06:42;98597.78;;;20.27;68.69
69796;BME280;57073;45.650;9.612;2022-08-19T00:08:42;98609.38;;;20.33;68.82
69796;BME280;57073;45.650;9.612;2022-08-19T00:10:43;98598.69;;;20.37;68.47
69796;BME280;57073;45.650;9.612;2022-08-19T00:12:43;98586.50;;;20.34;68.32
69796;BME280;57073;45.650;9.612;2022-08-19T00:14:44;98594.06;;;20.37;69.20
69796;BME280;57073;45.650;9.612;2022-08-19T00:16:46;98588.19;;;20.30;69.54
69796;BME280;57073;45.650;9.612;2022-08-19T00:18:48;98587.50;;;20.38;69.91
69796;BME280;57073;45.650;9.612;2022-08-19T00:20:48;98574.38;;;20.40;68.47
69796;BME280;57073;45.650;9.612;2022-08-19T00:22:48;98569.44;;;20.42;69.05
69796;BME280;57073;45.650;9.612;2022-08-19T00:24:49;98561.25;;;20.42;68.43
69796;BME280;57073;45.650;9.612;2022-08-19T00:26:50;98550.38;;;20.42;68.49
69796;BME280;57073;45.650;9.612;2022-08-19T00:28:51;98554.72;;;20.43;69.71
69796;BME280;57073;45.650;9.612;2022-08-19T00:30:51;98558.16;;;20.49;69.04
69796;BME280;57073;45.650;9.612;2022-08-19T00:32:53;98552.09;;;20.52;68.76
69796;BME280;57073;45.650;9.612;2022-08-19T00:34:55;98547.25;;;20.49;68.67
69796;BME280;57073;45.650;9.612;2022-08-19T00:36:56;98546.97;;;20.51;68.90
69796;BME280;57073;45.650;9.612;2022-08-19T00:38:57;98547.63;;;20.42;67.75
69796;BME280;57073;45.650;9.612;2022-08-19T00:40:58;98566.41;;;20.44;67.84
69796;BME280;57073;45.650;9.612;2022-08-19T00:42:59;98574.31;;;20.45;68.52
69796;BME280;57073;45.650;9.612;2022-08-19T00:44:59;98574.09;;;20.42;68.70
69796;BME280;57073;45.650;9.612;2022-08-19T00:47:00;98586.59;;;20.43;68.46
69796;BME280;57073;45.650;9.612;2022-08-19T00:49:02;98572.16;;;20.42;68.19
69796;BME280;57073;45.650;9.612;2022-08-19T00:51:06;98558.94;;;20.36;67.61
69796;BME280;57073;45.650;9.612;2022-08-19T00:53:07;98544.28;;;20.32;67.47
69796;BME280;57073;45.650;9.612;2022-08-19T00:55:08;98539.84;;;20.22;67.71
69796;BME280;57073;45.650;9.612;2022-08-19T00:57:15;98536.91;;;20.18;68.02
69796;BME280;57073;45.650;9.612;2022-08-19T00:59:18;98558.91;;;20.22;68.61
69796;BME280;57073;45.650;9.612;2022-08-19T01:01:19;98555.69;;;20.20;67.77
69796;BME280;57073;45.650;9.612;2022-08-19T01:03:21;98537.69;;;20.19;67.63
69796;BME280;57073;45.650;9.612;2022-08-19T01:05:24;98533.47;;;20.13;67.85
69796;BME280;57073;45.650;9.612;2022-08-19T01:07:27;98531.31;;;20.09;68.00
69796;BME280;57073;45.650;9.612;2022-08-19T01:09:29;98524.16;;;20.00;68.34
69796;BME280;57073;45.650;9.612;2022-08-19T01:11:31;98535.75;;;20.05;67.85
69796;BME280;57073;45.650;9.612;2022-08-19T01:13:34;98537.66;;;20.05;67.94
69796;BME280;57073;45.650;9.612;2022-08-19T01:15:42;98532.41;;;19.95;67.68
69796;BME280;57073;45.650;9.612;2022-08-19T01:17:44;98522.88;;;19.92;67.61
69796;BME280;57073;45.650;9.612;2022-08-19T01:19:46;98523.63;;;19.98;67.96
69796;BME280;57073;45.650;9.612;2022-08-19T01:22:16;98521.72;;;19.98;68.12
69796;BME280;57073;45.650;9.612;2022-08-19T01:24:20;98523.75;;;20.06;68.01
69796;BME280;57073;45.650;9.612;2022-08-19T01:26:23;98517.19;;;20.07;68.11
69796;BME280;57073;45.650;9.612;2022-08-19T01:28:26;98528.59;;;20.09;67.92
69796;BME280;57073;45.650;9.612;2022-08-19T01:30:30;98538.47;;;20.05;68.23
69796;BME280;57073;45.650;9.612;2022-08-19T01:32:31;98539.06;;;20.02;67.81
69796;BME280;57073;45.650;9.612;2022-08-19T01:34:31;98538.06;;;19.98;67.33
69796;BME280;57073;45.650;9.612;2022-08-19T01:36:40;98531.50;;;19.99;67.32
69796;BME280;57073;45.650;9.612;2022-08-19T01:38:43;98529.38;;;19.96;67.88
69796;BME280;57073;45.650;9.612;2022-08-19T01:40:45;98537.00;;;19.94;67.99
69796;BME280;57073;45.650;9.612;2022-08-19T01:42:49;98545.09;;;19.99;67.53
69796;BME280;57073;45.650;9.612;2022-08-19T01:44:50;98537.00;;;19.94;68.40
69796;BME280;57073;45.650;9.612;2022-08-19T01:46:51;98546.75;;;20.00;68.14
69796;BME280;57073;45.650;9.612;2022-08-19T01:48:51;98549.97;;;20.02;67.38
69796;BME280;57073;45.650;9.612;2022-08-19T01:50:52;98552.69;;;20.02;68.26
69796;BME280;57073;45.650;9.612;2022-08-19T01:52:52;98556.50;;;20.01;68.35
69796;BME280;57073;45.650;9.612;2022-08-19T01:54:52;98543.50;;;19.98;68.23
69796;BME280;57073;45.650;9.612;2022-08-19T01:57:06;98551.81;;;20.07;68.59
69796;BME280;57073;45.650;9.612;2022-08-19T01:59:12;98553.63;;;20.11;68.33
69796;BME280;57073;45.650;9.612;2022-08-19T02:01:14;98552.81;;;20.11;68.36
69796;BME280;57073;45.650;9.612;2022-08-19T02:03:15;98555.34;;;20.07;68.40
69796;BME280;57073;45.650;9.612;2022-08-19T02:05:16;98553.19;;;20.04;68.15
69796;BME280;57073;45.650;9.612;2022-08-19T02:07:21;98556.34;;;20.11;68.32
69796;BME280;57073;45.650;9.612;2022-08-19T02:09:21;98547.16;;;20.07;67.40
69796;BME280;57073;45.650;9.612;2022-08-19T02:11:30;98553.69;;;20.06;67.02
69796;BME280;57073;45.650;9.612;2022-08-19T02:13:32;98549.97;;;20.02;67.22
69796;BME280;57073;45.650;9.612;2022-08-19T02:15:32;98546.00;;;19.95;66.71
69796;BME280;57073;45.650;9.612;2022-08-19T02:17:33;98547.69;;;19.90;67.22
69796;BME280;57073;45.650;9.612;2022-08-19T02:19:34;98552.34;;;19.90;66.72
69796;BME280;57073;45.650;9.612;2022-08-19T02:21:34;98547.28;;;19.83;67.56
69796;BME280;57073;45.650;9.612;2022-08-19T02:23:35;98548.88;;;19.84;67.82
69796;BME280;57073;45.650;9.612;2022-08-19T02:25:35;98544.97;;;19.90;67.52
69796;BME280;57073;45.650;9.612;2022-08-19T02:27:36;98539.84;;;19.89;68.36
69796;BME280;57073;45.650;9.612;2022-08-19T02:29:36;98541.44;;;19.90;67.83
69796;BME280;57073;45.650;9.612;2022-08-19T02:31:37;98536.59;;;19.87;67.09
69796;BME280;57073;45.650;9.612;2022-08-19T02:33:37;98534.97;;;19.86;67.59
69796;BME280;57073;45.650;9.612;2022-08-19T02:35:41;98533.06;;;19.86;67.51
69796;BME280;57073;45.650;9.612;2022-08-19T02:37:42;98518.56;;;19.91;68.05
69796;BME280;57073;45.650;9.612;2022-08-19T02:40:02;98519.66;;;19.90;67.38
69796;BME280;57073;45.650;9.612;2022-08-19T02:42:03;98511.50;;;19.90;67.01
69796;BME280;57073;45.650;9.612;2022-08-19T02:44:04;98507.47;;;19.87;67.71
69796;BME280;57073;45.650;9.612;2022-08-19T02:46:23;98507.16;;;19.89;67.67
69796;BME280;57073;45.650;9.612;2022-08-19T02:48:25;98505.47;;;19.93;67.94
69796;BME280;57073;45.650;9.612;2022-08-19T02:50:25;98497.00;;;19.95;68.16
69796;BME280;57073;45.650;9.612;2022-08-19T02:52:26;98506.97;;;19.99;67.67
69796;BME280;57073;45.650;9.612;2022-08-19T02:54:27;98507.88;;;19.95;67.78
69796;BME280;57073;45.650;9.612;2022-08-19T02:56:28;98505.09;;;20.00;67.54
69796;BME280;57073;45.650;9.612;2022-08-19T02:58:29;98506.97;;;19.99;67.98
69796;BME280;57073;45.650;9.612;2022-08-19T03:00:29;98502.56;;;20.03;67.49
69796;BME280;57073;45.650;9.612;2022-08-19T03:02:29;98505.88;;;20.00;67.91
69796;BME280;57073;45.650;9.612;2022-08-19T03:04:30;98509.63;;;20.04;67.76
69796;BME280;57073;45.650;9.612;2022-08-19T03:06:31;98503.16;;;20.00;68.74
69796;BME280;57073;45.650;9.612;2022-08-19T03:08:32;98505.19;;;20.08;67.83
69796;BME280;57073;45.650;9.612;2022-08-19T03:10:33;98511.47;;;20.09;67.67
69796;BME280;57073;45.650;9.612;2022-08-19T03:12:36;98508.94;;;20.13;68.16
69796;BME280;57073;45.650;9.612;2022-08-19T03:14:37;98513.28;;;20.14;67.94
69796;BME280;57073;45.650;9.612;2022-08-19T03:16:47;98508.44;;;20.10;67.07
69796;BME280;57073;45.650;9.612;2022-08-19T03:18:49;98503.50;;;20.13;67.26
69796;BME280;57073;45.650;9.612;2022-08-19T03:20:51;98503.09;;;20.19;67.31
69796;BME280;57073;45.650;9.612;2022-08-19T03:22:54;98519.94;;;20.21;67.77
69796;BME280;57073;45.650;9.612;2022-08-19T03:24:54;98507.94;;;20.22;67.54
69796;BME280;57073;45.650;9.612;2022-08-19T03:26:55;98526.00;;;20.18;67.47
69796;BME280;57073;45.650;9.612;2022-08-19T03:28:57;98525.59;;;20.25;68.24
69796;BME280;57073;45.650;9.612;2022-08-19T03:31:05;98520.97;;;20.25;67.12
69796;BME280;57073;45.650;9.612;2022-08-19T03:33:10;98519.34;;;20.24;67.73
69796;BME280;57073;45.650;9.612;2022-08-19T03:35:12;98508.75;;;20.23;67.89
69796;BME280;57073;45.650;9.612;2022-08-19T03:37:12;98506.53;;;20.25;67.91
69796;BME280;57073;45.650;9.612;2022-08-19T03:39:13;98507.28;;;20.30;67.51
69796;BME280;57073;45.650;9.612;2022-08-19T03:41:18;98509.16;;;20.30;67.47
69796;BME280;57073;45.650;9.612;2022-08-19T03:43:18;98512.31;;;20.23;67.90
69796;BME280;57073;45.650;9.612;2022-08-19T03:45:19;98519.13;;;20.21;68.00
69796;BME280;57073;45.650;9.612;2022-08-19T03:47:19;98521.44;;;20.14;68.28
69796;BME280;57073;45.650;9.612;2022-08-19T03:49:20;98528.66;;;20.23;69.09
69796;BME280;57073;45.650;9.612;2022-08-19T03:51:37;98532.69;;;20.26;69.13
69796;BME280;57073;45.650;9.612;2022-08-19T03:53:38;98544.59;;;20.30;68.99
69796;BME280;57073;45.650;9.612;2022-08-19T03:55:40;98555.19;;;20.32;69.40
69796;BME280;57073;45.650;9.612;2022-08-19T03:57:41;98566.88;;;20.32;68.58
69796;BME280;57073;45.650;9.612;2022-08-19T03:59:41;98574.19;;;20.37;68.35
69796;BME280;57073;45.650;9.612;2022-08-19T04:01:42;98576.69;;;20.33;68.13
69796;BME280;57073;45.650;9.612;2022-08-19T04:03:43;98585.88;;;20.37;68.88
69796;BME280;57073;45.650;9.612;2022-08-19T04:05:46;98592.25;;;20.33;69.31
69796;BME280;57073;45.650;9.612;2022-08-19T04:07:46;98598.00;;;20.31;69.42
69796;BME280;57073;45.650;9.612;2022-08-19T04:09:48;98599.00;;;20.35;69.62
69796;BME280;57073;45.650;9.612;2022-08-19T04:11:52;98605.47;;;20.39;69.01
69796;BME280;57073;45.650;9.612;2022-08-19T04:13:56;98607.38;;;20.39;68.08
69796;BME280;57073;45.650;9.612;2022-08-19T04:15:57;98615.06;;;20.37;68.12
69796;BME280;57073;45.650;9.612;2022-08-19T04:17:57;98620.94;;;20.25;69.46
69796;BME280;57073;45.650;9.612;2022-08-19T04:19:57;98614.41;;;20.26;69.05
69796;BME280;57073;45.650;9.612;2022-08-19T04:21:58;98608.97;;;20.26;69.07
69796;BME280;57073;45.650;9.612;2022-08-19T04:23:59;98607.44;;;20.20;69.64
69796;BME280;57073;45.650;9.612;2022-08-19T04:25:59;98620.91;;;20.11;69.16
69796;BME280;57073;45.650;9.612;2022-08-19T04:27:59;98613.56;;;20.11;69.67
69796;BME280;57073;45.650;9.612;2022-08-19T04:30:00;98623.47;;;20.21;70.06
69796;BME280;57073;45.650;9.612;2022-08-19T04:32:00;98634.56;;;20.25;69.89
69796;BME280;57073;45.650;9.612;2022-08-19T04:34:03;98624.28;;;20.22;69.71
69796;BME280;57073;45.650;9.612;2022-08-19T04:36:04;98646.88;;;20.22;69.98
69796;BME280;57073;45.650;9.612;2022-08-19T04:38:05;98650.63;;;20.26;68.91
69796;BME280;57073;45.650;9.612;2022-08-19T04:40:06;98644.75;;;20.19;69.53
69796;BME280;57073;45.650;9.612;2022-08-19T04:42:25;98644.53;;;20.16;69.41
69796;BME280;57073;45.650;9.612;2022-08-19T04:44:41;98653.91;;;20.09;69.65
69796;BME280;57073;45.650;9.612;2022-08-19T04:46:41;98662.44;;;20.22;69.43
69796;BME280;57073;45.650;9.612;2022-08-19T04:48:42;98658.75;;;20.13;69.72
69796;BME280;57073;45.650;9.612;2022-08-19T04:50:43;98668.09;;;20.06;68.98
69796;BME280;57073;45.650;9.612;2022-08-19T04:52:44;98678.84;;;20.17;68.17
69796;BME280;57073;45.650;9.612;2022-08-19T04:54:44;98674.38;;;19.88;68.39
69796;BME280;57073;45.650;9.612;2022-08-19T04:56:44;98685.13;;;19.98;68.03
69796;BME280;57073;45.650;9.612;2022-08-19T04:58:45;98685.78;;;20.09;67.72
69796;BME280;57073;45.650;9.612;2022-08-19T05:00:45;98691.16;;;20.14;67.85
69796;BME280;57073;45.650;9.612;2022-08-19T05:02:46;98690.63;;;20.12;67.80
69796;BME280;57073;45.650;9.612;2022-08-19T05:04:47;98685.91;;;20.18;68.46
69796;BME280;57073;45.650;9.612;2022-08-19T05:06:48;98681.34;;;20.13;69.06
69796;BME280;57073;45.650;9.612;2022-08-19T05:08:49;98685.09;;;20.17;69.21
69796;BME280;57073;45.650;9.612;2022-08-19T05:10:50;98691.34;;;20.18;69.19
69796;BME280;57073;45.650;9.612;2022-08-19T05:12:51;98693.50;;;20.21;69.77
69796;BME280;57073;45.650;9.612;2022-08-19T05:14:51;98697.41;;;20.15;70.09
69796;BME280;57073;45.650;9.612;2022-08-19T05:16:52;98688.72;;;20.13;70.22
69796;BME280;57073;45.650;9.612;2022-08-19T05:18:53;98684.81;;;20.19;71.19
69796;BME280;57073;45.650;9.612;2022-08-19T05:21:14;98686.81;;;20.13;71.04
69796;BME280;57073;45.650;9.612;2022-08-19T05:23:33;98691.31;;;20.04;72.59
69796;BME280;57073;45.650;9.612;2022-08-19T05:25:34;98696.81;;;19.99;73.48
69796;BME280;57073;45.650;9.612;2022-08-19T05:27:39;98681.72;;;20.06;72.26
69796;BME280;57073;45.650;9.612;2022-08-19T05:29:39;98684.44;;;20.06;73.32
69796;BME280;57073;45.650;9.612;2022-08-19T05:31:40;98686.38;;;20.06;73.76
69796;BME280;57073;45.650;9.612;2022-08-19T05:33:40;98695.63;;;20.24;73.48
69796;BME280;57073;45.650;9.612;2022-08-19T05:35:41;98702.78;;;20.20;73.01
69796;BME280;57073;45.650;9.612;2022-08-19T05:37:41;98710.59;;;20.07;72.81
69796;BME280;57073;45.650;9.612;2022-08-19T05:39:42;98701.28;;;20.08;73.49
69796;BME280;57073;45.650;9.612;2022-08-19T05:41:46;98708.03;;;20.16;73.30
69796;BME280;57073;45.650;9.612;2022-08-19T05:43:47;98710.50;;;20.32;72.69
69796;BME280;57073;45.650;9.612;2022-08-19T05:45:47;98704.75;;;20.33;72.84
69796;BME280;57073;45.650;9.612;2022-08-19T05:47:50;98709.63;;;20.36;73.29
69796;BME280;57073;45.650;9.612;2022-08-19T05:49:51;98712.47;;;20.45;72.83
69796;BME280;57073;45.650;9.612;2022-08-19T05:53:51;98714.81;;;20.52;72.45
69796;BME280;57073;45.650;9.612;2022-08-19T05:57:52;98713.94;;;20.56;72.57
69796;BME280;57073;45.650;9.612;2022-08-19T05:59:52;98714.91;;;20.65;72.78
69796;BME280;57073;45.650;9.612;2022-08-19T06:01:54;98709.97;;;20.67;72.74
69796;BME280;57073;45.650;9.612;2022-08-19T06:03:55;98708.88;;;20.68;72.32
69796;BME280;57073;45.650;9.612;2022-08-19T06:05:56;98708.06;;;20.68;73.10
69796;BME280;57073;45.650;9.612;2022-08-19T06:07:58;98710.69;;;20.73;72.58
69796;BME280;57073;45.650;9.612;2022-08-19T06:09:59;98720.19;;;20.76;72.92
69796;BME280;57073;45.650;9.612;2022-08-19T06:11:59;98717.56;;;20.71;72.14
69796;BME280;57073;45.650;9.612;2022-08-19T06:14:03;98714.53;;;20.72;72.05
69796;BME280;57073;45.650;9.612;2022-08-19T06:16:04;98708.66;;;20.65;72.37
69796;BME280;57073;45.650;9.612;2022-08-19T06:18:04;98715.13;;;20.69;72.88
69796;BME280;57073;45.650;9.612;2022-08-19T06:20:08;98720.00;;;20.72;72.98
69796;BME280;57073;45.650;9.612;2022-08-19T06:22:10;98724.91;;;20.70;73.93
69796;BME280;57073;45.650;9.612;2022-08-19T06:24:14;98719.38;;;20.75;72.60
69796;BME280;57073;45.650;9.612;2022-08-19T06:26:16;98716.16;;;20.73;72.67
69796;BME280;57073;45.650;9.612;2022-08-19T06:28:16;98694.72;;;20.66;72.79
69796;BME280;57073;45.650;9.612;2022-08-19T06:30:17;98705.75;;;20.75;72.32
69796;BME280;57073;45.650;9.612;2022-08-19T06:32:18;98698.06;;;20.77;72.60
69796;BME280;57073;45.650;9.612;2022-08-19T06:34:19;98700.00;;;20.77;73.35
69796;BME280;57073;45.650;9.612;2022-08-19T06:36:25;98702.66;;;20.82;73.33
69796;BME280;57073;45.650;9.612;2022-08-19T06:38:31;98698.78;;;20.83;72.58
69796;BME280;57073;45.650;9.612;2022-08-19T06:40:33;98697.78;;;20.79;73.11
69796;BME280;57073;45.650;9.612;2022-08-19T06:42:37;98705.06;;;20.83;72.26
69796;BME280;57073;45.650;9.612;2022-08-19T06:44:42;98693.75;;;20.76;72.19
69796;BME280;57073;45.650;9.612;2022-08-19T06:46:43;98698.59;;;20.79;71.78
69796;BME280;57073;45.650;9.612;2022-08-19T06:48:43;98698.78;;;20.83;71.46
69796;BME280;57073;45.650;9.612;2022-08-19T06:50:44;98701.00;;;20.67;71.42
69796;BME280;57073;45.650;9.612;2022-08-19T06:52:44;98710.09;;;20.57;71.74
69796;BME280;57073;45.650;9.612;2022-08-19T06:54:44;98716.84;;;20.65;71.87
69796;BME280;57073;45.650;9.612;2022-08-19T06:56:45;98713.44;;;20.54;71.78
69796;BME280;57073;45.650;9.612;2022-08-19T06:58:45;98705.72;;;20.42;73.10
69796;BME280;57073;45.650;9.612;2022-08-19T07:00:46;98718.81;;;20.40;73.87
69796;BME280;57073;45.650;9.612;2022-08-19T07:02:47;98717.72;;;20.41;73.52
69796;BME280;57073;45.650;9.612;2022-08-19T07:04:47;98712.19;;;20.46;73.67
69796;BME280;57073;45.650;9.612;2022-08-19T07:06:48;98713.97;;;20.37;74.59
69796;BME280;57073;45.650;9.612;2022-08-19T07:08:49;98716.69;;;20.56;73.16
69796;BME280;57073;45.650;9.612;2022-08-19T07:10:50;98713.06;;;20.61;73.61
69796;BME280;57073;45.650;9.612;2022-08-19T07:12:50;98714.53;;;20.53;74.46
69796;BME280;57073;45.650;9.612;2022-08-19T07:14:51;98702.63;;;20.30;75.81
69796;BME280;57073;45.650;9.612;2022-08-19T07:16:54;98681.81;;;20.53;74.70
69796;BME280;57073;45.650;9.612;2022-08-19T07:18:55;98662.53;;;20.49;74.26
69796;BME280;57073;45.650;9.612;2022-08-19T07:21:11;98665.34;;;20.44;73.08
69796;BME280;57073;45.650;9.612;2022-08-19T07:23:12;98678.47;;;20.04;72.15
69796;BME280;57073;45.650;9.612;2022-08-19T07:25:12;98682.97;;;19.95;69.34
69796;BME280;57073;45.650;9.612;2022-08-19T07:27:13;98681.13;;;20.09;70.48
69796;BME280;57073;45.650;9.612;2022-08-19T07:29:14;98689.75;;;19.98;70.06
69796;BME280;57073;45.650;9.612;2022-08-19T07:31:19;98702.56;;;19.97;70.79
69796;BME280;57073;45.650;9.612;2022-08-19T07:33:20;98697.19;;;20.11;69.82
69796;BME280;57073;45.650;9.612;2022-08-19T07:35:21;98712.63;;;20.16;69.42
69796;BME280;57073;45.650;9.612;2022-08-19T07:37:22;98722.22;;;20.13;69.26
69796;BME280;57073;45.650;9.612;2022-08-19T07:39:27;98734.06;;;20.22;69.86
69796;BME280;57073;45.650;9.612;2022-08-19T07:41:29;98743.88;;;20.42;69.80
69796;BME280;57073;45.650;9.612;2022-08-19T07:43:30;98736.19;;;20.44;69.60
69796;BME280;57073;45.650;9.612;2022-08-19T07:45:31;98747.28;;;20.34;68.42
69796;BME280;57073;45.650;9.612;2022-08-19T07:47:32;98745.41;;;20.29;68.42
69796;BME280;57073;45.650;9.612;2022-08-19T07:49:33;98740.03;;;20.43;68.97
69796;BME280;57073;45.650;9.612;2022-08-19T07:51:34;98750.13;;;20.43;70.00
69796;BME280;57073;45.650;9.612;2022-08-19T07:53:35;98750.34;;;20.46;71.15
69796;BME280;57073;45.650;9.612;2022-08-19T07:55:36;98758.72;;;20.50;71.89
69796;BME280;57073;45.650;9.612;2022-08-19T07:57:36;98764.09;;;20.55;71.59
69796;BME280;57073;45.650;9.612;2022-08-19T07:59:38;98764.34;;;20.59;71.59
69796;BME280;57073;45.650;9.612;2022-08-19T08:01:39;98766.50;;;20.62;70.74
69796;BME280;57073;45.650;9.612;2022-08-19T08:03:40;98767.53;;;20.66;71.48
69796;BME280;57073;45.650;9.612;2022-08-19T08:05:58;98765.44;;;20.77;72.38
69796;BME280;57073;45.650;9.612;2022-08-19T08:08:17;98766.69;;;20.84;72.26
69796;BME280;57073;45.650;9.612;2022-08-19T08:10:36;98760.06;;;20.91;72.72
69796;BME280;57073;45.650;9.612;2022-08-19T08:12:39;98767.03;;;20.97;71.96
69796;BME280;57073;45.650;9.612;2022-08-19T08:14:49;98764.72;;;21.04;72.07
69796;BME280;57073;45.650;9.612;2022-08-19T08:16:49;98770.59;;;21.11;72.18
69796;BME280;57073;45.650;9.612;2022-08-19T08:18:51;98766.06;;;21.20;71.71
69796;BME280;57073;45.650;9.612;2022-08-19T08:20:51;98774.75;;;21.22;71.70
69796;BME280;57073;45.650;9.612;2022-08-19T08:22:51;98779.03;;;21.29;71.97
69796;BME280;57073;45.650;9.612;2022-08-19T08:25:17;98775.00;;;21.40;71.85
69796;BME280;57073;45.650;9.612;2022-08-19T08:27:19;98780.16;;;21.41;72.15
69796;BME280;57073;45.650;9.612;2022-08-19T08:29:19;98777.78;;;21.54;71.26
69796;BME280;57073;45.650;9.612;2022-08-19T08:31:20;98779.09;;;21.56;71.36
69796;BME280;57073;45.650;9.612;2022-08-19T08:33:22;98781.03;;;21.56;72.06
69796;BME280;57073;45.650;9.612;2022-08-19T08:35:23;98785.56;;;21.60;72.83
69796;BME280;57073;45.650;9.612;2022-08-19T08:37:24;98784.25;;;21.58;72.88
69796;BME280;57073;45.650;9.612;2022-08-19T08:39:25;98780.91;;;21.75;72.08
69796;BME280;57073;45.650;9.612;2022-08-19T08:43:52;98794.88;;;21.87;71.44
69796;BME280;57073;45.650;9.612;2022-08-19T08:46:24;98798.00;;;21.94;70.65
69796;BME280;57073;45.650;9.612;2022-08-19T08:50:53;98798.72;;;22.00;70.68
69796;BME280;57073;45.650;9.612;2022-08-19T08:52:56;98793.94;;;22.06;70.76
69796;BME280;57073;45.650;9.612;2022-08-19T08:54:59;98803.16;;;22.10;70.02
69796;BME280;57073;45.650;9.612;2022-08-19T08:57:03;98798.59;;;22.19;69.85
69796;BME280;57073;45.650;9.612;2022-08-19T08:59:10;98797.19;;;22.21;69.61
69796;BME280;57073;45.650;9.612;2022-08-19T09:01:12;98798.41;;;22.29;69.34
69796;BME280;57073;45.650;9.612;2022-08-19T09:03:25;98788.34;;;22.38;68.89
69796;BME280;57073;45.650;9.612;2022-08-19T09:05:41;98792.31;;;22.46;68.89
69796;BME280;57073;45.650;9.612;2022-08-19T09:08:06;98781.50;;;22.64;68.92
69796;BME280;57073;45.650;9.612;2022-08-19T09:15:06;98786.81;;;23.05;66.84
69796;BME280;57073;45.650;9.612;2022-08-19T09:17:09;98794.09;;;23.10;66.70
69796;BME280;57073;45.650;9.612;2022-08-19T09:19:09;98793.63;;;23.16;64.99
69796;BME280;57073;45.650;9.612;2022-08-19T09:21:10;98795.00;;;23.28;65.23
69796;BME280;57073;45.650;9.612;2022-08-19T09:23:11;98789.06;;;23.34;64.56
69796;BME280;57073;45.650;9.612;2022-08-19T09:25:14;98784.06;;;23.28;63.51
69796;BME280;57073;45.650;9.612;2022-08-19T09:27:15;98794.72;;;23.38;64.73
69796;BME280;57073;45.650;9.612;2022-08-19T09:29:15;98780.91;;;23.43;63.96
69796;BME280;57073;45.650;9.612;2022-08-19T09:31:21;98783.06;;;23.55;63.68
69796;BME280;57073;45.650;9.612;2022-08-19T09:33:22;98776.91;;;23.49;62.41
69796;BME280;57073;45.650;9.612;2022-08-19T09:35:24;98771.94;;;23.51;63.00
69796;BME280;57073;45.650;9.612;2022-08-19T09:37:26;98780.47;;;23.50;62.39
69796;BME280;57073;45.650;9.612;2022-08-19T09:39:26;98776.63;;;23.60;63.27
69796;BME280;57073;45.650;9.612;2022-08-19T09:41:27;98775.53;;;23.69;63.40
69796;BME280;57073;45.650;9.612;2022-08-19T09:43:27;98775.53;;;23.69;62.65
69796;BME280;57073;45.650;9.612;2022-08-19T09:45:29;98771.63;;;23.62;61.88
69796;BME280;57073;45.650;9.612;2022-08-19T09:47:29;98782.41;;;23.58;61.96
69796;BME280;57073;45.650;9.612;2022-08-19T09:49:30;98778.25;;;23.69;61.93
69796;BME280;57073;45.650;9.612;2022-08-19T09:51:31;98785.72;;;23.78;62.45
69796;BME280;57073;45.650;9.612;2022-08-19T09:53:31;98787.38;;;23.87;61.19
69796;BME280;57073;45.650;9.612;2022-08-19T09:55:32;98784.63;;;23.87;61.08
69796;BME280;57073;45.650;9.612;2022-08-19T09:57:32;98789.53;;;23.59;60.44
69796;BME280;57073;45.650;9.612;2022-08-19T09:59:34;98792.69;;;23.84;61.07
69796;BME280;57073;45.650;9.612;2022-08-19T10:01:34;98792.19;;;23.82;60.10
69796;BME280;57073;45.650;9.612;2022-08-19T10:03:36;98794.25;;;23.76;59.65
69796;BME280;57073;45.650;9.612;2022-08-19T10:05:36;98797.72;;;23.90;60.65
69796;BME280;57073;45.650;9.612;2022-08-19T10:07:49;98801.44;;;23.95;59.87
69796;BME280;57073;45.650;9.612;2022-08-19T10:09:50;98795.81;;;24.00;61.51
69796;BME280;57073;45.650;9.612;2022-08-19T10:11:50;98783.25;;;23.99;59.37
69796;BME280;57073;45.650;9.612;2022-08-19T10:13:50;98775.34;;;24.06;60.35
69796;BME280;57073;45.650;9.612;2022-08-19T10:15:56;98774.19;;;23.98;58.96
69796;BME280;57073;45.650;9.612;2022-08-19T10:17:57;98770.38;;;24.17;59.77
69796;BME280;57073;45.650;9.612;2022-08-19T10:19:59;98769.88;;;24.23;59.59
69796;BME280;57073;45.650;9.612;2022-08-19T10:22:03;98764.91;;;24.34;59.79
69796;BME280;57073;45.650;9.612;2022-08-19T10:24:05;98767.19;;;24.41;60.07
69796;BME280;57073;45.650;9.612;2022-08-19T10:26:06;98751.19;;;24.25;56.90
69796;BME280;57073;45.650;9.612;2022-08-19T10:28:07;98757.00;;;24.33;57.71
69796;BME280;57073;45.650;9.612;2022-08-19T10:30:08;98755.06;;;24.42;57.67
69796;BME280;57073;45.650;9.612;2022-08-19T10:32:09;98757.66;;;24.29;56.81
69796;BME280;57073;45.650;9.612;2022-08-19T10:34:10;98744.59;;;24.35;57.33
69796;BME280;57073;45.650;9.612;2022-08-19T10:36:13;98744.75;;;24.39;58.36
69796;BME280;57073;45.650;9.612;2022-08-19T10:38:20;98744.25;;;24.45;58.67
69796;BME280;57073;45.650;9.612;2022-08-19T10:40:21;98746.03;;;24.50;58.63
69796;BME280;57073;45.650;9.612;2022-08-19T10:42:22;98738.94;;;24.40;56.91
69796;BME280;57073;45.650;9.612;2022-08-19T10:44:22;98734.28;;;24.49;58.73
69796;BME280;57073;45.650;9.612;2022-08-19T10:46:26;98728.31;;;24.56;58.88
69796;BME280;57073;45.650;9.612;2022-08-19T10:48:27;98732.31;;;24.50;57.83
69796;BME280;57073;45.650;9.612;2022-08-19T10:50:27;98731.84;;;24.48;57.72
69796;BME280;57073;45.650;9.612;2022-08-19T10:52:49;98727.81;;;24.54;58.08
69796;BME280;57073;45.650;9.612;2022-08-19T10:54:50;98727.97;;;24.58;57.15
69796;BME280;57073;45.650;9.612;2022-08-19T10:57:09;98721.53;;;24.62;57.66
69796;BME280;57073;45.650;9.612;2022-08-19T10:59:09;98724.75;;;24.64;58.06
69796;BME280;57073;45.650;9.612;2022-08-19T11:01:11;98724.09;;;24.76;57.97
69796;BME280;57073;45.650;9.612;2022-08-19T11:03:11;98726.34;;;24.74;57.79